サンフランシスコ の空港の天気 - METARとTAF

サンフランシスコ国際空港 ( KSFO / SFO ) - アメリカ合衆国 カリフォルニア州サンマテオ郡
飛行場実況気象(Metar)
観測時間02/27 13:56 PST (02/27 21:56 UTC)
風向・風速西 6m/s
視程10km以上
天気現象
少しの雲 雲底高度 910m
気温12.2℃
湿度55%
気圧1014.2hPa
METARKSFO 272156Z 27011KT 10SM FEW030 12/03 A2995 RMK AO2 SLP142 T01220033
過去の天気等 Google飛行場航空写真 Wunderground天気予報

過去48時間のMETAR

飛行場予報(TAF)
発表時間: 2/27 13:08 PST (2/27 21:08 UTC)
予報対象時間: 27日13時 PST ~ 28日16時 PST
風向・風速北北東 3m/s
視程10km以上
少しの雲 雲底高度 910m
27日15時 PST から
風向・風速西北西 7m/s
視程10km以上
少しの雲 雲底高度 910m
27日21時 PST から
風向・風速西北西 6m/s
視程10km以上
少しの雲 雲底高度 910m
28日7時 PST から
風向・風速西北西 3m/s
視程10km以上
少しの雲 雲底高度 1,070m
28日14時 PST から
風向・風速西北西 6m/s
視程10km以上
なし
KSFO 272108Z 2721/2824 03006KT P6SM FEW030
FM272300 29014KT P6SM FEW030
FM280500 29011KT P6SM FEW030
FM281500 30006KT P6SM FEW035
FM282200 29012KT P6SM SKC